createdAt,value
2019-01-18T00:02:03.246Z,2.10
2019-01-18T00:04:30.689Z,2.43
2019-01-18T00:06:57.567Z,1.70
2019-01-18T00:09:24.408Z,2.47
2019-01-18T00:11:50.943Z,2.60
2019-01-18T00:14:17.476Z,1.63
2019-01-18T00:16:44.318Z,2.13
2019-01-18T00:19:10.856Z,2.17
2019-01-18T00:21:37.388Z,1.93
2019-01-18T00:24:04.229Z,1.83
2019-01-18T00:26:30.764Z,2.23
2019-01-18T00:28:57.300Z,1.97
2019-01-18T00:31:23.836Z,1.60
2019-01-18T00:33:50.676Z,1.30
2019-01-18T00:36:17.209Z,2.43
2019-01-18T00:38:43.743Z,1.93
2019-01-18T00:41:10.282Z,1.57
2019-01-18T00:43:36.814Z,1.50
2019-01-18T00:46:03.655Z,1.40
2019-01-18T00:48:30.190Z,1.43
2019-01-18T00:50:57.032Z,1.70
2019-01-18T00:53:23.566Z,1.60
2019-01-18T00:55:50.409Z,1.37
2019-01-18T00:58:17.249Z,1.17
2019-01-18T01:00:43.784Z,1.40
2019-01-18T01:03:10.318Z,1.23
2019-01-18T01:05:37.159Z,1.53
2019-01-18T01:08:03.695Z,1.80
2019-01-18T01:10:30.520Z,2.23
2019-01-18T01:12:57.111Z,1.60
2019-01-18T01:15:23.606Z,1.73
2019-01-18T01:17:50.139Z,1.20
2019-01-18T01:20:16.674Z,1.33
2019-01-18T01:22:43.210Z,1.57
2019-01-18T01:25:09.744Z,1.60
2019-01-18T01:27:36.284Z,1.30
2019-01-18T01:30:03.120Z,1.33
2019-01-18T01:32:29.961Z,1.83
2019-01-18T01:34:56.498Z,1.87
2019-01-18T01:37:23.131Z,1.30
2019-01-18T01:39:49.872Z,2.17
2019-01-18T01:42:16.406Z,1.70
2019-01-18T01:44:43.862Z,2.37
2019-01-18T01:47:10.703Z,2.03
2019-01-18T01:49:37.241Z,1.77
2019-01-18T01:52:03.775Z,1.50
2019-01-18T01:54:30.615Z,1.30
2019-01-18T01:56:57.459Z,1.90
2019-01-18T01:59:23.992Z,2.23
2019-01-18T02:01:50.832Z,1.50
2019-01-18T02:04:17.371Z,1.40
2019-01-18T02:06:44.208Z,1.50
2019-01-18T02:09:11.051Z,2.20
2019-01-18T02:11:37.586Z,1.67
2019-01-18T02:14:04.119Z,1.70
2019-01-18T02:16:30.653Z,1.17
2019-01-18T02:18:57.188Z,0.80
2019-01-18T02:21:23.724Z,1.10
2019-01-18T02:23:50.235Z,0.80
2019-01-18T02:26:17.099Z,1.13
2019-01-18T02:28:43.641Z,0.70
2019-01-18T02:31:10.165Z,1.23
2019-01-18T02:33:36.703Z,0.90
2019-01-18T02:36:03.527Z,0.80
2019-01-18T02:38:30.081Z,0.90
2019-01-18T02:40:56.922Z,0.70
2019-01-18T02:43:23.454Z,0.97
2019-01-18T02:45:50.296Z,0.60
2019-01-18T02:48:16.832Z,0.50
2019-01-18T02:50:43.364Z,1.13
2019-01-18T02:53:10.210Z,1.13
2019-01-18T02:55:36.742Z,0.37
2019-01-18T02:58:03.587Z,1.00
2019-01-18T03:00:30.120Z,0.63
2019-01-18T03:02:56.963Z,0.70
2019-01-18T03:05:23.496Z,0.60
2019-01-18T03:07:50.338Z,0.80
2019-01-18T03:10:17.178Z,0.50
2019-01-18T03:12:43.712Z,0.43
2019-01-18T03:15:10.247Z,1.00
2019-01-18T03:17:36.781Z,0.57
2019-01-18T03:20:03.318Z,0.50
2019-01-18T03:22:30.158Z,1.10
2019-01-18T03:24:56.692Z,0.70
2019-01-18T03:27:23.228Z,1.03
2019-01-18T03:29:50.069Z,0.50
2019-01-18T03:32:16.604Z,1.23
2019-01-18T03:34:43.490Z,0.50
2019-01-18T03:37:10.287Z,0.77
2019-01-18T03:39:37.129Z,0.60
2019-01-18T03:42:03.969Z,0.70
2019-01-18T03:44:30.504Z,1.80
2019-01-18T03:46:57.346Z,0.50
2019-01-18T03:49:23.983Z,0.97
2019-01-18T03:51:50.494Z,0.50
2019-01-18T03:54:17.256Z,0.93
2019-01-18T03:56:43.793Z,0.90
2019-01-18T03:59:10.302Z,1.10
2019-01-18T04:01:36.860Z,0.57
2019-01-18T04:04:03.377Z,0.50
2019-01-18T04:06:30.240Z,0.70
2019-01-18T04:08:56.771Z,0.60
2019-01-18T04:11:23.921Z,0.50
2019-01-18T04:13:50.456Z,0.60
2019-01-18T04:16:16.988Z,1.17
2019-01-18T04:18:43.523Z,0.80
2019-01-18T04:21:10.060Z,0.70
2019-01-18T04:23:36.592Z,1.30
2019-01-18T04:26:03.132Z,0.90
2019-01-18T04:28:29.664Z,0.50
2019-01-18T04:30:56.197Z,0.90
2019-01-18T04:33:22.810Z,0.80
2019-01-18T04:35:49.664Z,1.30
2019-01-18T04:38:16.415Z,0.80
2019-01-18T04:40:42.947Z,1.03
2019-01-18T04:43:09.483Z,0.80
2019-01-18T04:45:36.026Z,1.30
2019-01-18T04:48:02.859Z,0.73
2019-01-18T04:50:29.404Z,1.07
2019-01-18T04:52:55.933Z,0.87
2019-01-18T04:55:22.469Z,1.23
2019-01-18T04:57:48.998Z,1.37
2019-01-18T05:00:15.532Z,0.93
2019-01-18T05:02:42.065Z,1.33
2019-01-18T05:05:08.910Z,1.00
2019-01-18T05:07:35.443Z,1.13
2019-01-18T05:10:02.290Z,0.90
2019-01-18T05:12:28.820Z,0.60
2019-01-18T05:14:55.661Z,1.07
2019-01-18T05:17:22.503Z,0.70
2019-01-18T05:19:49.036Z,1.07
2019-01-18T05:22:16.306Z,1.83
2019-01-18T05:24:49.348Z,1.10
2019-01-18T05:27:11.103Z,1.07
2019-01-18T05:29:37.944Z,1.00
2019-01-18T05:32:04.475Z,1.30
2019-01-18T05:34:31.010Z,0.77
2019-01-18T05:36:57.851Z,1.03
2019-01-18T05:39:24.385Z,0.97
2019-01-18T05:41:51.230Z,0.70
2019-01-18T05:44:17.738Z,0.60
2019-01-18T05:46:44.299Z,0.97
2019-01-18T05:49:10.833Z,0.63
2019-01-18T05:51:37.364Z,1.07
2019-01-18T05:54:04.205Z,1.47
2019-01-18T05:56:30.741Z,0.80
2019-01-18T05:58:57.274Z,0.83
2019-01-18T06:01:23.955Z,1.23
2019-01-18T06:03:50.958Z,1.17
2019-01-18T06:06:17.806Z,1.00
2019-01-18T06:08:44.325Z,1.00
2019-01-18T06:11:10.869Z,1.50
2019-01-18T06:13:37.711Z,0.70
2019-01-18T06:16:04.245Z,1.00
2019-01-18T06:18:30.783Z,0.70
2019-01-18T06:20:57.317Z,1.20
2019-01-18T06:23:24.157Z,1.13
2019-01-18T06:25:50.694Z,1.20
2019-01-18T06:28:17.240Z,0.70
2019-01-18T06:30:44.067Z,0.73
2019-01-18T06:33:10.601Z,0.80
2019-01-18T06:35:37.443Z,1.03
2019-01-18T06:38:03.983Z,0.90
2019-01-18T06:40:30.516Z,0.97
2019-01-18T06:42:57.050Z,1.13
2019-01-18T06:45:23.662Z,0.97
2019-01-18T06:47:50.424Z,0.73
2019-01-18T06:50:16.966Z,1.17
2019-01-18T06:52:43.799Z,1.27
2019-01-18T06:55:10.341Z,1.83
2019-01-18T06:57:36.871Z,1.30
2019-01-18T07:00:03.711Z,1.00
2019-01-18T07:02:30.552Z,1.60
2019-01-18T07:04:57.395Z,1.17
2019-01-18T07:07:23.931Z,0.70
2019-01-18T07:09:50.773Z,0.80
2019-01-18T07:12:17.618Z,1.33
2019-01-18T07:14:44.455Z,0.90
2019-01-18T07:17:10.990Z,0.67
2019-01-18T07:19:37.521Z,1.00
2019-01-18T07:22:04.057Z,1.40
2019-01-18T07:24:30.902Z,1.60
2019-01-18T07:26:57.773Z,1.23
2019-01-18T07:29:24.489Z,1.23
2019-01-18T07:31:51.118Z,1.57
2019-01-18T07:34:17.651Z,1.00
2019-01-18T07:36:44.495Z,1.53
2019-01-18T07:39:11.027Z,1.17
2019-01-18T07:41:37.563Z,0.80
2019-01-18T07:44:04.097Z,2.00
2019-01-18T07:46:30.636Z,1.67
2019-01-18T07:48:57.471Z,0.90
2019-01-18T07:51:23.996Z,0.80
2019-01-18T07:53:50.540Z,1.00
2019-01-18T07:56:17.076Z,1.40
2019-01-18T07:58:43.611Z,1.03
2019-01-18T08:01:10.144Z,1.53
2019-01-18T08:03:36.679Z,0.90
2019-01-18T08:06:03.215Z,1.10
2019-01-18T08:08:30.058Z,0.63
2019-01-18T08:10:56.589Z,0.70
2019-01-18T08:13:23.431Z,1.67
2019-01-18T08:15:49.966Z,1.87
2019-01-18T08:18:16.808Z,0.50
2019-01-18T08:20:43.344Z,1.10
2019-01-18T08:23:10.184Z,0.50
2019-01-18T08:25:36.798Z,1.10
2019-01-18T08:28:03.566Z,2.50
2019-01-18T08:30:30.099Z,1.13
2019-01-18T08:32:56.939Z,1.23
2019-01-18T08:35:23.472Z,0.43
2019-01-18T08:37:50.313Z,0.50
2019-01-18T08:40:16.851Z,1.23
2019-01-18T08:42:43.383Z,1.43
2019-01-18T08:45:09.916Z,1.70
2019-01-18T08:47:36.451Z,1.10
2019-01-18T08:50:03.279Z,1.13
2019-01-18T08:52:30.429Z,1.70
2019-01-18T08:54:57.287Z,1.27
2019-01-18T08:57:23.827Z,1.07
2019-01-18T08:59:50.357Z,0.90
2019-01-18T09:02:16.887Z,0.80
2019-01-18T09:04:43.728Z,1.63
2019-01-18T09:07:10.265Z,1.33
2019-01-18T09:09:37.104Z,1.10
2019-01-18T09:12:03.949Z,1.20
2019-01-18T09:14:30.791Z,1.80
2019-01-18T09:16:57.325Z,1.53
2019-01-18T09:19:23.860Z,2.57
2019-01-18T09:21:50.745Z,2.13
2019-01-18T09:24:17.209Z,0.80
2019-01-18T09:26:44.077Z,1.80
2019-01-18T09:29:10.612Z,1.80
2019-01-18T09:31:42.480Z,1.47
2019-01-18T09:34:07.366Z,1.63
2019-01-18T09:36:35.881Z,1.40
2019-01-18T09:39:02.988Z,1.67
2019-01-18T09:41:29.732Z,2.30
2019-01-18T09:43:57.226Z,1.37
2019-01-18T09:46:25.789Z,2.40
2019-01-18T09:48:53.025Z,3.33
2019-01-18T09:51:20.174Z,1.70
2019-01-18T09:53:48.551Z,1.93
2019-01-18T09:56:16.742Z,1.93
2019-01-18T09:58:45.309Z,2.93
2019-01-18T10:01:12.146Z,1.83
2019-01-18T10:03:39.499Z,2.17
2019-01-18T10:06:07.673Z,2.50
2019-01-18T10:08:35.067Z,2.80
2019-01-18T10:11:01.972Z,2.27
2019-01-18T10:13:28.506Z,3.13
2019-01-18T10:15:55.041Z,3.70
2019-01-18T10:18:21.575Z,3.07
2019-01-18T10:20:48.421Z,1.73
2019-01-18T10:23:14.950Z,1.90
2019-01-18T10:25:41.792Z,3.17
2019-01-18T10:28:08.326Z,2.40
2019-01-18T10:30:35.168Z,2.73
2019-01-18T10:33:01.703Z,3.07
2019-01-18T10:35:28.544Z,2.17
2019-01-18T10:37:55.080Z,2.97
2019-01-18T10:40:21.613Z,2.67
2019-01-18T10:42:48.149Z,3.47
2019-01-18T10:45:14.682Z,1.97
2019-01-18T10:47:41.223Z,2.90
2019-01-18T10:50:08.059Z,3.10
2019-01-18T10:52:34.574Z,2.20
2019-01-18T10:55:01.129Z,2.73
2019-01-18T10:57:27.662Z,2.23
2019-01-18T10:59:54.197Z,2.30
2019-01-18T11:02:20.731Z,1.67
2019-01-18T11:04:47.266Z,3.00
2019-01-18T11:07:13.800Z,3.10
2019-01-18T11:09:40.482Z,2.37
2019-01-18T11:12:07.176Z,3.73
2019-01-18T11:14:33.719Z,3.00
2019-01-18T11:17:00.245Z,2.07
2019-01-18T11:19:26.782Z,3.67
2019-01-18T11:21:53.624Z,2.43
2019-01-18T11:24:20.157Z,1.67
2019-01-18T11:26:46.690Z,2.63
2019-01-18T11:29:13.243Z,2.40
2019-01-18T11:31:39.759Z,3.17
2019-01-18T11:34:06.375Z,2.67
2019-01-18T11:36:33.137Z,2.37
2019-01-18T11:38:59.679Z,1.30
2019-01-18T11:41:26.513Z,2.90
2019-01-18T11:43:53.050Z,3.70
2019-01-18T11:46:19.582Z,1.63
2019-01-18T11:48:50.271Z,5.07
2019-01-18T11:51:14.496Z,1.87
2019-01-18T11:53:41.334Z,1.97
2019-01-18T11:56:07.846Z,3.93
2019-01-18T11:58:34.405Z,1.73
2019-01-18T12:01:00.939Z,1.87
2019-01-18T12:03:27.565Z,1.47
2019-01-18T12:05:54.315Z,1.83
2019-01-18T12:08:21.781Z,1.73
2019-01-18T12:10:48.305Z,1.67
2019-01-18T12:13:14.841Z,1.50
2019-01-18T12:15:41.375Z,1.50
2019-01-18T12:18:08.221Z,1.30
2019-01-18T12:20:34.751Z,1.73
2019-01-18T12:23:01.592Z,1.63
2019-01-18T12:25:28.126Z,1.40
2019-01-18T12:27:54.970Z,1.40
2019-01-18T12:30:21.821Z,2.53
2019-01-18T12:32:48.654Z,1.30
2019-01-18T12:35:15.493Z,1.40
2019-01-18T12:37:42.029Z,1.63
2019-01-18T12:40:08.563Z,1.47
2019-01-18T12:42:35.407Z,1.80
2019-01-18T12:45:01.941Z,1.80
2019-01-18T12:47:28.474Z,1.30
2019-01-18T12:49:55.007Z,1.80
2019-01-18T12:52:21.530Z,2.30
2019-01-18T12:54:48.389Z,2.47
2019-01-18T12:57:14.919Z,1.67
2019-01-18T12:59:41.453Z,2.20
2019-01-18T13:02:08.295Z,1.53
2019-01-18T13:04:35.143Z,1.47
2019-01-18T13:07:01.997Z,1.90
2019-01-18T13:09:28.512Z,1.83
2019-01-18T13:11:55.354Z,1.80
2019-01-18T13:14:21.890Z,1.57
2019-01-18T13:16:48.424Z,2.03
2019-01-18T13:19:14.961Z,1.50
2019-01-18T13:21:41.492Z,2.03
2019-01-18T13:24:08.028Z,2.17
2019-01-18T13:26:34.561Z,1.60
2019-01-18T13:29:01.096Z,2.13
2019-01-18T13:31:27.630Z,1.53
2019-01-18T13:33:54.186Z,1.93
2019-01-18T13:36:21.006Z,1.67
2019-01-18T13:38:47.544Z,1.73
2019-01-18T13:41:14.386Z,1.70
2019-01-18T13:43:40.917Z,1.50
2019-01-18T13:46:07.452Z,1.87
2019-01-18T13:48:34.299Z,2.17
2019-01-18T13:51:00.828Z,2.17
2019-01-18T13:53:27.657Z,2.83
2019-01-18T13:55:54.206Z,2.07
2019-01-18T13:58:20.740Z,1.30
2019-01-18T14:00:47.582Z,1.83
2019-01-18T14:03:14.114Z,2.67
2019-01-18T14:05:40.958Z,1.93
2019-01-18T14:08:07.553Z,2.20
2019-01-18T14:10:34.335Z,1.80
2019-01-18T14:13:00.872Z,1.93
2019-01-18T14:15:27.402Z,1.93
2019-01-18T14:17:54.013Z,2.37
2019-01-18T14:20:21.053Z,1.73
2019-01-18T14:22:47.927Z,2.20
2019-01-18T14:25:14.461Z,1.90
2019-01-18T14:27:41.312Z,1.97
2019-01-18T14:30:07.841Z,1.83
2019-01-18T14:32:34.463Z,1.77
2019-01-18T14:35:01.506Z,2.43
2019-01-18T14:37:28.351Z,1.80
2019-01-18T14:39:54.898Z,4.73
2019-01-18T14:42:21.755Z,1.93
2019-01-18T14:44:48.673Z,1.93
2019-01-18T14:47:15.422Z,2.03
2019-01-18T14:49:42.264Z,2.17
2019-01-18T14:52:08.798Z,2.37
2019-01-18T14:54:35.311Z,2.17
2019-01-18T14:57:01.868Z,2.20
2019-01-18T14:59:28.726Z,2.73
2019-01-18T15:01:55.246Z,2.57
2019-01-18T15:04:21.754Z,2.03
2019-01-18T15:06:48.620Z,1.90
2019-01-18T15:09:15.159Z,2.47
2019-01-18T15:11:41.666Z,2.27
2019-01-18T15:14:08.531Z,2.07
2019-01-18T15:16:35.066Z,2.80
2019-01-18T15:19:01.908Z,1.90
2019-01-18T15:21:28.441Z,2.67
2019-01-18T15:23:55.286Z,2.40
2019-01-18T15:26:22.126Z,2.10
2019-01-18T15:28:48.662Z,2.70
2019-01-18T15:31:15.502Z,2.23
2019-01-18T15:33:42.036Z,2.57
2019-01-18T15:36:08.881Z,1.93
2019-01-18T15:38:35.719Z,1.97
2019-01-18T15:41:02.565Z,2.17
2019-01-18T15:43:29.402Z,2.13
2019-01-18T15:45:56.243Z,1.70
2019-01-18T15:48:23.091Z,2.13
2019-01-18T15:50:49.619Z,2.83
2019-01-18T15:53:16.155Z,1.33
2019-01-18T15:55:42.695Z,2.70
2019-01-18T15:58:09.530Z,2.50
2019-01-18T16:00:36.372Z,2.50
2019-01-18T16:03:03.215Z,2.00
2019-01-18T16:05:29.806Z,2.27
2019-01-18T16:07:56.596Z,2.40
2019-01-18T16:10:23.130Z,2.13
2019-01-18T16:12:49.659Z,1.97
2019-01-18T16:15:16.504Z,3.67
2019-01-18T16:17:43.039Z,2.97
2019-01-18T16:20:09.878Z,3.50
2019-01-18T16:22:37.333Z,2.90
2019-01-18T16:25:04.184Z,2.20
2019-01-18T16:27:31.017Z,3.50
2019-01-18T16:29:57.860Z,2.53
2019-01-18T16:32:24.889Z,3.73
2019-01-18T16:34:51.552Z,3.23
2019-01-18T16:37:18.382Z,2.57
2019-01-18T16:39:44.920Z,3.03
2019-01-18T16:42:11.452Z,2.10
2019-01-18T16:44:38.294Z,3.20
2019-01-18T16:47:05.136Z,3.73
2019-01-18T16:49:31.670Z,2.80
2019-01-18T16:51:58.205Z,4.17
2019-01-18T16:54:25.050Z,2.20
2019-01-18T16:56:51.561Z,3.30
2019-01-18T16:59:18.117Z,3.13
2019-01-18T17:01:44.650Z,3.50
2019-01-18T17:04:11.491Z,3.67
2019-01-18T17:06:41.405Z,4.20
2019-01-18T17:09:07.939Z,4.10
2019-01-18T17:11:34.479Z,3.73
2019-01-18T17:14:01.320Z,2.20
2019-01-18T17:16:28.158Z,3.27
2019-01-18T17:18:54.755Z,5.83
2019-01-18T17:21:21.542Z,3.27
2019-01-18T17:23:48.378Z,3.17
2019-01-18T17:26:14.912Z,2.67
2019-01-18T17:28:41.752Z,2.63
2019-01-18T17:31:08.264Z,3.10
2019-01-18T17:33:36.997Z,2.70
2019-01-18T17:36:03.200Z,2.70
2019-01-18T17:38:29.732Z,4.83
2019-01-18T17:40:56.351Z,2.53
2019-01-18T17:43:23.109Z,2.77
2019-01-18T17:45:49.643Z,3.07
2019-01-18T17:48:16.177Z,4.00
2019-01-18T17:50:43.053Z,3.23
2019-01-18T17:53:09.558Z,2.20
2019-01-18T17:55:36.089Z,3.10
2019-01-18T17:58:04.663Z,3.27
2019-01-18T18:00:31.006Z,2.57
2019-01-18T18:02:57.846Z,3.57
2019-01-18T18:05:24.379Z,3.47
2019-01-18T18:07:50.912Z,4.07
2019-01-18T18:10:17.758Z,3.30
2019-01-18T18:12:44.290Z,3.03
2019-01-18T18:15:11.150Z,3.70
2019-01-18T18:17:37.689Z,3.00
2019-01-18T18:20:04.199Z,3.13
2019-01-18T18:22:31.047Z,3.20
2019-01-18T18:24:57.771Z,3.47
2019-01-18T18:27:24.426Z,4.00
2019-01-18T18:29:51.315Z,2.67
2019-01-18T18:32:18.162Z,3.17
2019-01-18T18:34:44.955Z,2.87
2019-01-18T18:37:11.499Z,3.63
2019-01-18T18:39:38.601Z,2.60
2019-01-18T18:42:05.164Z,2.77
2019-01-18T18:44:31.698Z,2.87
2019-01-18T18:46:58.232Z,2.77
2019-01-18T18:49:24.765Z,3.00
2019-01-18T18:51:51.611Z,2.30
2019-01-18T18:54:18.454Z,2.53
2019-01-18T18:56:45.294Z,2.70
2019-01-18T18:59:11.822Z,2.47
2019-01-18T19:01:38.665Z,2.50
2019-01-18T19:04:05.200Z,1.87
2019-01-18T19:06:32.043Z,1.70
2019-01-18T19:08:58.554Z,2.30
2019-01-18T19:11:25.110Z,2.00
2019-01-18T19:13:51.747Z,2.53
2019-01-18T19:16:18.488Z,2.00
2019-01-18T19:18:45.023Z,2.47
2019-01-18T19:21:11.862Z,2.63
2019-01-18T19:23:38.397Z,2.20
2019-01-18T19:26:05.238Z,4.10
2019-01-18T19:28:32.079Z,3.00
2019-01-18T19:30:58.618Z,1.97
2019-01-18T19:33:25.456Z,2.60
2019-01-18T19:35:51.994Z,2.43
2019-01-18T19:38:18.832Z,2.80
2019-01-18T19:40:45.367Z,3.10
2019-01-18T19:43:12.208Z,2.00
2019-01-18T19:45:38.745Z,2.70
2019-01-18T19:48:05.278Z,2.30
2019-01-18T19:50:31.816Z,2.27
2019-01-18T19:52:58.347Z,2.53
2019-01-18T19:55:25.190Z,2.30
2019-01-18T19:57:51.722Z,2.43
2019-01-18T20:00:18.257Z,1.93
2019-01-18T20:02:44.791Z,2.30
2019-01-18T20:05:11.634Z,2.30
2019-01-18T20:07:38.476Z,2.03
2019-01-18T20:10:05.316Z,1.77
2019-01-18T20:12:31.853Z,3.07
2019-01-18T20:14:58.388Z,2.03
2019-01-18T20:17:24.921Z,1.97
2019-01-18T20:19:51.456Z,2.23
2019-01-18T20:22:17.992Z,1.90
2019-01-18T20:24:44.834Z,2.20
2019-01-18T20:27:11.366Z,1.67
2019-01-18T20:29:37.902Z,2.27
2019-01-18T20:32:04.437Z,2.37
2019-01-18T20:34:30.971Z,1.50
2019-01-18T20:36:57.476Z,1.60
2019-01-18T20:39:24.346Z,1.97
2019-01-18T20:41:51.213Z,2.10
2019-01-18T20:44:18.030Z,1.77
2019-01-18T20:46:44.563Z,3.33
2019-01-18T20:49:11.097Z,3.37
2019-01-18T20:51:37.940Z,1.80
2019-01-18T20:54:04.785Z,1.47
2019-01-18T20:56:31.315Z,1.63
2019-01-18T20:58:58.157Z,2.07
2019-01-18T21:01:25.002Z,2.07
2019-01-18T21:03:51.841Z,2.17
2019-01-18T21:06:18.683Z,1.70
2019-01-18T21:08:45.220Z,2.90
2019-01-18T21:11:12.062Z,2.63
2019-01-18T21:13:38.903Z,1.80
2019-01-18T21:16:05.439Z,2.23
2019-01-18T21:18:31.946Z,3.03
2019-01-18T21:20:58.507Z,1.50
2019-01-18T21:23:27.816Z,1.67
2019-01-18T21:25:55.262Z,2.10
2019-01-18T21:28:22.101Z,1.93
2019-01-18T21:30:48.640Z,2.33
2019-01-18T21:33:15.173Z,3.47
2019-01-18T21:35:41.705Z,2.33
2019-01-18T21:38:08.549Z,3.03
2019-01-18T21:40:35.686Z,2.67
2019-01-18T21:43:04.092Z,3.47
2019-01-18T21:45:31.222Z,2.77
2019-01-18T21:47:58.771Z,2.67
2019-01-18T21:50:25.524Z,2.63
2019-01-18T21:52:52.374Z,2.03
2019-01-18T21:55:19.781Z,1.60
2019-01-18T21:57:46.685Z,2.50
2019-01-18T22:00:13.504Z,3.27
2019-01-18T22:02:40.038Z,2.80
2019-01-18T22:05:06.883Z,2.53
2019-01-18T22:07:33.413Z,2.30
2019-01-18T22:10:00.256Z,2.23
2019-01-18T22:12:26.793Z,3.60
2019-01-18T22:14:53.331Z,2.57
2019-01-18T22:17:20.163Z,2.30
2019-01-18T22:19:46.699Z,1.57
2019-01-18T22:22:13.539Z,3.97
2019-01-18T22:24:40.075Z,1.57
2019-01-18T22:27:06.916Z,3.17
2019-01-18T22:29:33.757Z,2.57
2019-01-18T22:32:00.302Z,4.20
2019-01-18T22:34:27.138Z,2.33
2019-01-18T22:36:53.675Z,2.87
2019-01-18T22:39:20.509Z,3.30
2019-01-18T22:41:47.139Z,1.87
2019-01-18T22:44:13.891Z,2.43
2019-01-18T22:46:40.727Z,2.77
2019-01-18T22:49:07.624Z,2.77
2019-01-18T22:51:34.413Z,2.67
2019-01-18T22:54:01.254Z,2.97
2019-01-18T22:56:28.522Z,2.97
2019-01-18T22:58:55.244Z,2.43
2019-01-18T23:01:22.084Z,2.50
2019-01-18T23:03:48.927Z,2.63
2019-01-18T23:06:15.463Z,2.80
2019-01-18T23:08:42.000Z,3.53
2019-01-18T23:11:08.532Z,2.67
2019-01-18T23:13:35.372Z,3.03
2019-01-18T23:16:01.906Z,2.70
2019-01-18T23:18:28.751Z,2.57
2019-01-18T23:20:55.297Z,2.10
2019-01-18T23:23:21.817Z,2.80
2019-01-18T23:25:48.662Z,2.97
2019-01-18T23:28:15.197Z,2.43
2019-01-18T23:30:41.729Z,2.50
2019-01-18T23:33:08.263Z,3.13
2019-01-18T23:35:35.106Z,3.53
2019-01-18T23:38:08.261Z,2.40
2019-01-18T23:40:30.327Z,2.83
2019-01-18T23:42:56.859Z,3.17
2019-01-18T23:45:23.398Z,2.10
2019-01-18T23:47:50.267Z,2.83
2019-01-18T23:50:17.102Z,3.47
2019-01-18T23:52:43.611Z,5.37
2019-01-18T23:55:10.147Z,2.47
2019-01-18T23:57:36.680Z,2.90
